sensor_id;sensor_type;location;lat;lon;timestamp;pressure;altitude;pressure_sealevel;temperature;humidity
29169;BME280;16219;42.864;23.360;2023-01-27T00:00:00;95030.56;;;0.30;100.00
29169;BME280;16219;42.864;23.360;2023-01-27T00:02:38;95027.44;;;0.33;100.00
29169;BME280;16219;42.864;23.360;2023-01-27T00:05:06;95018.06;;;0.37;100.00
29169;BME280;16219;42.864;23.360;2023-01-27T00:07:34;95026.09;;;0.46;100.00
29169;BME280;16219;42.864;23.360;2023-01-27T00:10:01;95026.88;;;0.46;100.00
29169;BME280;16219;42.864;23.360;2023-01-27T00:12:30;95034.66;;;0.46;100.00
29169;BME280;16219;42.864;23.360;2023-01-27T00:15:14;95032.34;;;0.45;100.00
29169;BME280;16219;42.864;23.360;2023-01-27T00:17:42;95041.13;;;0.49;100.00
29169;BME280;16219;42.864;23.360;2023-01-27T00:20:09;95046.34;;;0.49;100.00
29169;BME280;16219;42.864;23.360;2023-01-27T00:22:37;95043.47;;;0.45;100.00
29169;BME280;16219;42.864;23.360;2023-01-27T00:25:21;95030.56;;;0.35;100.00
29169;BME280;16219;42.864;23.360;2023-01-27T00:27:50;95031.56;;;0.44;100.00
29169;BME280;16219;42.864;23.360;2023-01-27T00:30:17;95030.28;;;0.32;100.00
29169;BME280;16219;42.864;23.360;2023-01-27T00:32:44;95024.09;;;0.22;100.00
29169;BME280;16219;42.864;23.360;2023-01-27T00:35:28;95013.44;;;0.34;100.00
29169;BME280;16219;42.864;23.360;2023-01-27T00:37:55;94999.41;;;0.35;100.00
29169;BME280;16219;42.864;23.360;2023-01-27T00:40:22;94987.72;;;0.38;100.00
29169;BME280;16219;42.864;23.360;2023-01-27T00:42:51;94992.38;;;0.51;100.00
29169;BME280;16219;42.864;23.360;2023-01-27T00:45:18;94988.47;;;0.48;100.00
29169;BME280;16219;42.864;23.360;2023-01-27T00:48:03;94998.81;;;0.54;100.00
29169;BME280;16219;42.864;23.360;2023-01-27T00:50:30;94996.50;;;0.52;100.00
29169;BME280;16219;42.864;23.360;2023-01-27T00:52:57;95008.72;;;0.52;100.00
29169;BME280;16219;42.864;23.360;2023-01-27T00:55:26;95015.41;;;0.63;100.00
29169;BME280;16219;42.864;23.360;2023-01-27T00:57:56;95013.31;;;0.65;100.00
29169;BME280;16219;42.864;23.360;2023-01-27T01:00:23;95015.88;;;0.70;100.00
29169;BME280;16219;42.864;23.360;2023-01-27T01:02:50;95016.38;;;0.77;100.00
29169;BME280;16219;42.864;23.360;2023-01-27T01:05:17;95025.19;;;0.76;100.00
29169;BME280;16219;42.864;23.360;2023-01-27T01:07:44;95016.91;;;0.74;100.00
29169;BME280;16219;42.864;23.360;2023-01-27T01:10:11;95014.03;;;0.75;100.00
29169;BME280;16219;42.864;23.360;2023-01-27T01:12:38;95010.94;;;0.73;100.00
29169;BME280;16219;42.864;23.360;2023-01-27T01:15:09;95010.75;;;0.60;100.00
29169;BME280;16219;42.864;23.360;2023-01-27T01:17:36;95012.31;;;0.50;100.00
29169;BME280;16219;42.864;23.360;2023-01-27T01:20:04;95010.78;;;0.49;100.00
29169;BME280;16219;42.864;23.360;2023-01-27T01:22:31;94997.50;;;0.61;100.00
29169;BME280;16219;42.864;23.360;2023-01-27T01:24:58;94987.91;;;0.62;100.00
29169;BME280;16219;42.864;23.360;2023-01-27T01:27:28;94991.47;;;0.71;100.00
29169;BME280;16219;42.864;23.360;2023-01-27T01:29:56;94998.78;;;0.69;100.00
29169;BME280;16219;42.864;23.360;2023-01-27T01:32:24;95002.41;;;0.63;100.00
29169;BME280;16219;42.864;23.360;2023-01-27T01:34:51;94992.53;;;0.70;100.00
29169;BME280;16219;42.864;23.360;2023-01-27T01:37:18;94993.56;;;0.74;100.00
29169;BME280;16219;42.864;23.360;2023-01-27T01:39:46;94989.66;;;0.71;100.00
29169;BME280;16219;42.864;23.360;2023-01-27T01:42:13;95002.31;;;0.83;100.00
29169;BME280;16219;42.864;23.360;2023-01-27T01:44:42;94998.44;;;0.81;100.00
29169;BME280;16219;42.864;23.360;2023-01-27T01:47:14;95001.72;;;0.96;100.00
29169;BME280;16219;42.864;23.360;2023-01-27T01:49:44;95010.06;;;0.93;100.00
29169;BME280;16219;42.864;23.360;2023-01-27T01:52:18;95018.91;;;0.92;100.00
29169;BME280;16219;42.864;23.360;2023-01-27T01:54:50;95021.81;;;0.81;100.00
29169;BME280;16219;42.864;23.360;2023-01-27T01:57:26;95022.31;;;0.83;100.00
29169;BME280;16219;42.864;23.360;2023-01-27T01:59:58;95020.25;;;0.80;100.00
29169;BME280;16219;42.864;23.360;2023-01-27T02:02:28;95010.13;;;0.83;100.00
29169;BME280;16219;42.864;23.360;2023-01-27T02:04:59;95010.09;;;0.88;100.00
29169;BME280;16219;42.864;23.360;2023-01-27T02:07:32;94996.56;;;0.91;100.00
29169;BME280;16219;42.864;23.360;2023-01-27T02:10:01;94990.84;;;0.94;100.00
29169;BME280;16219;42.864;23.360;2023-01-27T02:12:28;94973.00;;;0.83;100.00
29169;BME280;16219;42.864;23.360;2023-01-27T02:14:55;94969.31;;;0.94;100.00
29169;BME280;16219;42.864;23.360;2023-01-27T02:17:23;94970.59;;;0.91;100.00
29169;BME280;16219;42.864;23.360;2023-01-27T02:19:57;94950.66;;;0.87;100.00
29169;BME280;16219;42.864;23.360;2023-01-27T02:22:34;94942.88;;;0.82;100.00
29169;BME280;16219;42.864;23.360;2023-01-27T02:25:07;94936.81;;;0.96;100.00
29169;BME280;16219;42.864;23.360;2023-01-27T02:27:37;94927.72;;;0.99;100.00
29169;BME280;16219;42.864;23.360;2023-01-27T02:30:05;94927.19;;;0.97;100.00
29169;BME280;16219;42.864;23.360;2023-01-27T02:32:32;94929.59;;;0.88;100.00
29169;BME280;16219;42.864;23.360;2023-01-27T02:35:01;94930.34;;;0.94;100.00
29169;BME280;16219;42.864;23.360;2023-01-27T02:37:29;94923.06;;;0.96;100.00
29169;BME280;16219;42.864;23.360;2023-01-27T02:39:59;94910.25;;;1.05;100.00
29169;BME280;16219;42.864;23.360;2023-01-27T02:42:28;94910.31;;;0.99;100.00
29169;BME280;16219;42.864;23.360;2023-01-27T02:44:57;94912.94;;;0.94;100.00
29169;BME280;16219;42.864;23.360;2023-01-27T02:47:24;94908.09;;;0.83;100.00
29169;BME280;16219;42.864;23.360;2023-01-27T02:49:51;94922.91;;;0.82;100.00
29169;BME280;16219;42.864;23.360;2023-01-27T02:52:19;94920.88;;;0.74;100.00
29169;BME280;16219;42.864;23.360;2023-01-27T02:54:46;94919.78;;;0.80;100.00
29169;BME280;16219;42.864;23.360;2023-01-27T02:57:13;94922.38;;;0.80;100.00
29169;BME280;16219;42.864;23.360;2023-01-27T02:59:52;94921.91;;;0.68;100.00
29169;BME280;16219;42.864;23.360;2023-01-27T03:02:21;94929.91;;;0.82;100.00
29169;BME280;16219;42.864;23.360;2023-01-27T03:04:55;94931.03;;;0.65;100.00
29169;BME280;16219;42.864;23.360;2023-01-27T03:07:24;94926.13;;;0.64;100.00
29169;BME280;16219;42.864;23.360;2023-01-27T03:09:54;94925.34;;;0.58;100.00
29169;BME280;16219;42.864;23.360;2023-01-27T03:12:21;94919.94;;;0.49;100.00
29169;BME280;16219;42.864;23.360;2023-01-27T03:14:51;94931.31;;;0.59;100.00
29169;BME280;16219;42.864;23.360;2023-01-27T03:17:37;94925.66;;;0.46;100.00
29169;BME280;16219;42.864;23.360;2023-01-27T03:20:21;94920.00;;;0.44;100.00
29169;BME280;16219;42.864;23.360;2023-01-27T03:22:48;94918.13;;;0.50;100.00
29169;BME280;16219;42.864;23.360;2023-01-27T03:25:18;94910.63;;;0.48;100.00
29169;BME280;16219;42.864;23.360;2023-01-27T03:27:46;94919.91;;;0.55;100.00
29169;BME280;16219;42.864;23.360;2023-01-27T03:30:34;94913.16;;;0.64;100.00
29169;BME280;16219;42.864;23.360;2023-01-27T03:33:13;94913.34;;;0.72;100.00
29169;BME280;16219;42.864;23.360;2023-01-27T03:35:43;94899.66;;;0.62;100.00
29169;BME280;16219;42.864;23.360;2023-01-27T03:38:17;94902.44;;;0.70;100.00
29169;BME280;16219;42.864;23.360;2023-01-27T03:41:03;94894.13;;;0.73;100.00
29169;BME280;16219;42.864;23.360;2023-01-27T03:43:48;94886.59;;;0.77;100.00
29169;BME280;16219;42.864;23.360;2023-01-27T03:46:33;94888.69;;;0.70;100.00
29169;BME280;16219;42.864;23.360;2023-01-27T03:49:02;94876.72;;;0.74;100.00
29169;BME280;16219;42.864;23.360;2023-01-27T03:51:29;94871.06;;;0.67;100.00
29169;BME280;16219;42.864;23.360;2023-01-27T03:53:56;94868.41;;;0.77;100.00
29169;BME280;16219;42.864;23.360;2023-01-27T03:56:25;94867.59;;;0.82;100.00
29169;BME280;16219;42.864;23.360;2023-01-27T03:58:52;94847.44;;;0.68;100.00
29169;BME280;16219;42.864;23.360;2023-01-27T04:01:21;94856.44;;;0.81;100.00
29169;BME280;16219;42.864;23.360;2023-01-27T04:03:49;94850.38;;;0.91;100.00
29169;BME280;16219;42.864;23.360;2023-01-27T04:06:36;94859.00;;;0.86;100.00
29169;BME280;16219;42.864;23.360;2023-01-27T04:09:23;94858.72;;;0.88;100.00
29169;BME280;16219;42.864;23.360;2023-01-27T04:11:50;94857.38;;;0.95;100.00
29169;BME280;16219;42.864;23.360;2023-01-27T04:14:20;94855.81;;;0.94;100.00
29169;BME280;16219;42.864;23.360;2023-01-27T04:16:49;94868.84;;;0.89;100.00
29169;BME280;16219;42.864;23.360;2023-01-27T04:19:16;94882.81;;;0.93;100.00
29169;BME280;16219;42.864;23.360;2023-01-27T04:21:45;94902.63;;;0.84;100.00
29169;BME280;16219;42.864;23.360;2023-01-27T04:24:13;94905.84;;;0.66;100.00
29169;BME280;16219;42.864;23.360;2023-01-27T04:26:48;94913.97;;;0.54;100.00
29169;BME280;16219;42.864;23.360;2023-01-27T04:29:17;94941.91;;;0.72;100.00
29169;BME280;16219;42.864;23.360;2023-01-27T04:31:45;94938.00;;;0.70;100.00
29169;BME280;16219;42.864;23.360;2023-01-27T04:34:12;94952.34;;;0.57;100.00
29169;BME280;16219;42.864;23.360;2023-01-27T04:36:40;94945.66;;;0.46;100.00
29169;BME280;16219;42.864;23.360;2023-01-27T04:39:09;94957.03;;;0.60;100.00
29169;BME280;16219;42.864;23.360;2023-01-27T04:41:36;94972.03;;;0.63;100.00
29169;BME280;16219;42.864;23.360;2023-01-27T04:44:05;94985.75;;;0.74;100.00
29169;BME280;16219;42.864;23.360;2023-01-27T04:46:32;94985.78;;;0.69;100.00
29169;BME280;16219;42.864;23.360;2023-01-27T04:49:00;94979.34;;;0.61;100.00
29169;BME280;16219;42.864;23.360;2023-01-27T04:51:28;94973.41;;;0.56;100.00
29169;BME280;16219;42.864;23.360;2023-01-27T04:53:55;94978.78;;;0.69;100.00
29169;BME280;16219;42.864;23.360;2023-01-27T04:56:25;94989.94;;;0.70;100.00
29169;BME280;16219;42.864;23.360;2023-01-27T04:58:53;94982.69;;;0.62;100.00
29169;BME280;16219;42.864;23.360;2023-01-27T05:01:20;94969.72;;;0.62;100.00
29169;BME280;16219;42.864;23.360;2023-01-27T05:03:48;94980.06;;;0.67;100.00
29169;BME280;16219;42.864;23.360;2023-01-27T05:06:15;94977.97;;;0.74;100.00
29169;BME280;16219;42.864;23.360;2023-01-27T05:08:42;94975.38;;;0.74;100.00
29169;BME280;16219;42.864;23.360;2023-01-27T05:11:10;94978.19;;;0.83;100.00
29169;BME280;16219;42.864;23.360;2023-01-27T05:13:39;94964.47;;;0.77;100.00
29169;BME280;16219;42.864;23.360;2023-01-27T05:16:08;94935.91;;;0.77;100.00
29169;BME280;16219;42.864;23.360;2023-01-27T05:18:37;94951.38;;;0.92;100.00
29169;BME280;16219;42.864;23.360;2023-01-27T05:21:05;94942.28;;;0.95;100.00
29169;BME280;16219;42.864;23.360;2023-01-27T05:23:32;94948.22;;;1.00;100.00
29169;BME280;16219;42.864;23.360;2023-01-27T05:26:07;94937.81;;;1.00;100.00
29169;BME280;16219;42.864;23.360;2023-01-27T05:28:36;94942.44;;;1.09;100.00
29169;BME280;16219;42.864;23.360;2023-01-27T05:31:06;94944.00;;;1.10;100.00
29169;BME280;16219;42.864;23.360;2023-01-27T05:33:33;94942.91;;;1.16;100.00
29169;BME280;16219;42.864;23.360;2023-01-27T05:36:02;94931.56;;;1.07;100.00
29169;BME280;16219;42.864;23.360;2023-01-27T05:38:30;94937.06;;;1.00;100.00
29169;BME280;16219;42.864;23.360;2023-01-27T05:40:58;94929.78;;;0.97;100.00
29169;BME280;16219;42.864;23.360;2023-01-27T05:43:27;94915.03;;;0.92;100.00
29169;BME280;16219;42.864;23.360;2023-01-27T05:46:03;94917.25;;;1.09;100.00
29169;BME280;16219;42.864;23.360;2023-01-27T05:48:32;94910.78;;;1.07;100.00
29169;BME280;16219;42.864;23.360;2023-01-27T05:51:00;94899.31;;;1.13;100.00
29169;BME280;16219;42.864;23.360;2023-01-27T05:53:27;94902.75;;;1.03;100.00
29169;BME280;16219;42.864;23.360;2023-01-27T05:55:54;94903.47;;;1.09;100.00
29169;BME280;16219;42.864;23.360;2023-01-27T05:58:21;94910.94;;;0.86;100.00
29169;BME280;16219;42.864;23.360;2023-01-27T06:00:49;94913.78;;;0.85;100.00
29169;BME280;16219;42.864;23.360;2023-01-27T06:03:16;94905.25;;;0.79;100.00
29169;BME280;16219;42.864;23.360;2023-01-27T06:05:53;94923.47;;;0.74;100.00
29169;BME280;16219;42.864;23.360;2023-01-27T06:08:21;94930.44;;;0.79;100.00
29169;BME280;16219;42.864;23.360;2023-01-27T06:10:49;94928.09;;;0.82;100.00
29169;BME280;16219;42.864;23.360;2023-01-27T06:13:17;94930.72;;;0.72;100.00
29169;BME280;16219;42.864;23.360;2023-01-27T06:15:46;94939.03;;;0.74;100.00
29169;BME280;16219;42.864;23.360;2023-01-27T06:18:14;94942.69;;;0.73;100.00
29169;BME280;16219;42.864;23.360;2023-01-27T06:20:42;94948.34;;;0.80;100.00
29169;BME280;16219;42.864;23.360;2023-01-27T06:23:12;94928.56;;;0.84;100.00
29169;BME280;16219;42.864;23.360;2023-01-27T06:25:41;94934.53;;;0.85;100.00
29169;BME280;16219;42.864;23.360;2023-01-27T06:28:09;94933.00;;;0.84;100.00
29169;BME280;16219;42.864;23.360;2023-01-27T06:30:37;94932.75;;;0.80;100.00
29169;BME280;16219;42.864;23.360;2023-01-27T06:33:05;94941.50;;;0.94;100.00
29169;BME280;16219;42.864;23.360;2023-01-27T06:35:34;94943.75;;;1.06;100.00
29169;BME280;16219;42.864;23.360;2023-01-27T06:38:02;94938.25;;;1.13;100.00
29169;BME280;16219;42.864;23.360;2023-01-27T06:40:32;94943.97;;;1.15;100.00
29169;BME280;16219;42.864;23.360;2023-01-27T06:43:00;94941.38;;;1.10;100.00
29169;BME280;16219;42.864;23.360;2023-01-27T06:45:27;94941.81;;;1.22;100.00
29169;BME280;16219;42.864;23.360;2023-01-27T06:47:55;94939.69;;;1.29;100.00
29169;BME280;16219;42.864;23.360;2023-01-27T06:50:23;94941.81;;;1.22;100.00
29169;BME280;16219;42.864;23.360;2023-01-27T06:52:51;94950.66;;;1.21;100.00
29169;BME280;16219;42.864;23.360;2023-01-27T06:55:19;94961.56;;;1.23;100.00
29169;BME280;16219;42.864;23.360;2023-01-27T06:57:47;94971.34;;;1.36;100.00
29169;BME280;16219;42.864;23.360;2023-01-27T07:00:15;94970.34;;;1.32;100.00
29169;BME280;16219;42.864;23.360;2023-01-27T07:02:42;94970.88;;;1.29;100.00
29169;BME280;16219;42.864;23.360;2023-01-27T07:05:10;94976.69;;;1.16;100.00
29169;BME280;16219;42.864;23.360;2023-01-27T07:07:37;94981.84;;;1.21;100.00
29169;BME280;16219;42.864;23.360;2023-01-27T07:10:06;94973.75;;;1.28;100.00
29169;BME280;16219;42.864;23.360;2023-01-27T07:12:33;94974.97;;;1.35;100.00
29169;BME280;16219;42.864;23.360;2023-01-27T07:15:05;94971.19;;;1.22;100.00
29169;BME280;16219;42.864;23.360;2023-01-27T07:17:33;94951.63;;;1.30;100.00
29169;BME280;16219;42.864;23.360;2023-01-27T07:20:00;94951.63;;;1.30;100.00
29169;BME280;16219;42.864;23.360;2023-01-27T07:22:28;94950.56;;;1.36;100.00
29169;BME280;16219;42.864;23.360;2023-01-27T07:24:55;94959.28;;;1.50;100.00
29169;BME280;16219;42.864;23.360;2023-01-27T07:27:22;94969.63;;;1.56;100.00
29169;BME280;16219;42.864;23.360;2023-01-27T07:29:50;94969.28;;;1.67;100.00
29169;BME280;16219;42.864;23.360;2023-01-27T07:32:18;94963.75;;;1.74;100.00
29169;BME280;16219;42.864;23.360;2023-01-27T07:34:46;94971.34;;;1.94;100.00
29169;BME280;16219;42.864;23.360;2023-01-27T07:37:13;94966.06;;;2.05;100.00
29169;BME280;16219;42.864;23.360;2023-01-27T07:39:40;94972.44;;;2.17;100.00
29169;BME280;16219;42.864;23.360;2023-01-27T07:42:08;94968.50;;;2.20;100.00
29169;BME280;16219;42.864;23.360;2023-01-27T07:44:36;94973.22;;;2.18;100.00
29169;BME280;16219;42.864;23.360;2023-01-27T07:47:03;94979.91;;;2.24;100.00
29169;BME280;16219;42.864;23.360;2023-01-27T07:49:32;94965.63;;;2.21;100.00
29169;BME280;16219;42.864;23.360;2023-01-27T07:51:59;94969.09;;;2.36;100.00
29169;BME280;16219;42.864;23.360;2023-01-27T07:54:26;94970.38;;;2.38;100.00
29169;BME280;16219;42.864;23.360;2023-01-27T07:56:53;94968.78;;;2.42;100.00
29169;BME280;16219;42.864;23.360;2023-01-27T07:59:21;94966.72;;;2.39;100.00
29169;BME280;16219;42.864;23.360;2023-01-27T08:01:48;94967.28;;;2.36;100.00
29169;BME280;16219;42.864;23.360;2023-01-27T08:04:15;94969.88;;;2.36;100.00
29169;BME280;16219;42.864;23.360;2023-01-27T08:06:43;94974.78;;;2.38;100.00
29169;BME280;16219;42.864;23.360;2023-01-27T08:09:10;94970.50;;;2.28;100.00
29169;BME280;16219;42.864;23.360;2023-01-27T08:11:37;94975.28;;;2.21;100.00
29169;BME280;16219;42.864;23.360;2023-01-27T08:14:05;94971.31;;;1.99;100.00
29169;BME280;16219;42.864;23.360;2023-01-27T08:16:32;94970.88;;;1.92;100.00
29169;BME280;16219;42.864;23.360;2023-01-27T08:18:59;94977.94;;;1.87;100.00
29169;BME280;16219;42.864;23.360;2023-01-27T08:21:26;94965.34;;;1.70;100.00
29169;BME280;16219;42.864;23.360;2023-01-27T08:23:59;94966.50;;;1.59;100.00
29169;BME280;16219;42.864;23.360;2023-01-27T08:26:26;94968.63;;;1.52;100.00
29169;BME280;16219;42.864;23.360;2023-01-27T08:28:53;94979.34;;;1.74;100.00
29169;BME280;16219;42.864;23.360;2023-01-27T08:31:20;94971.69;;;1.88;100.00
29169;BME280;16219;42.864;23.360;2023-01-27T08:33:50;94963.16;;;1.82;100.00
29169;BME280;16219;42.864;23.360;2023-01-27T08:36:18;94968.16;;;1.79;100.00
29169;BME280;16219;42.864;23.360;2023-01-27T08:38:46;94968.44;;;1.72;100.00
29169;BME280;16219;42.864;23.360;2023-01-27T08:41:17;94969.16;;;1.83;100.00
29169;BME280;16219;42.864;23.360;2023-01-27T08:43:44;94950.75;;;1.74;100.00
29169;BME280;16219;42.864;23.360;2023-01-27T08:46:12;94969.59;;;1.90;100.00
29169;BME280;16219;42.864;23.360;2023-01-27T08:48:40;94965.44;;;1.60;100.00
29169;BME280;16219;42.864;23.360;2023-01-27T08:51:09;94975.25;;;1.68;100.00
29169;BME280;16219;42.864;23.360;2023-01-27T08:53:37;94966.22;;;1.60;100.00
29169;BME280;16219;42.864;23.360;2023-01-27T08:56:06;94966.44;;;1.64;100.00
29169;BME280;16219;42.864;23.360;2023-01-27T08:58:35;94973.66;;;1.72;100.00
29169;BME280;16219;42.864;23.360;2023-01-27T09:01:03;94973.53;;;1.87;100.00
29169;BME280;16219;42.864;23.360;2023-01-27T09:03:33;94978.06;;;2.00;100.00
29169;BME280;16219;42.864;23.360;2023-01-27T09:06:01;94971.69;;;2.12;100.00
29169;BME280;16219;42.864;23.360;2023-01-27T09:08:29;94979.63;;;2.25;100.00
29169;BME280;16219;42.864;23.360;2023-01-27T09:10:56;94978.28;;;2.28;100.00
29169;BME280;16219;42.864;23.360;2023-01-27T09:13:23;94971.22;;;2.34;100.00
29169;BME280;16219;42.864;23.360;2023-01-27T09:15:54;94955.41;;;2.25;100.00
29169;BME280;16219;42.864;23.360;2023-01-27T09:18:21;94957.06;;;2.21;100.00
29169;BME280;16219;42.864;23.360;2023-01-27T09:20:48;94965.78;;;2.30;100.00
29169;BME280;16219;42.864;23.360;2023-01-27T09:23:15;94966.94;;;2.43;100.00
29169;BME280;16219;42.864;23.360;2023-01-27T09:25:42;94962.91;;;2.32;100.00
29169;BME280;16219;42.864;23.360;2023-01-27T09:28:09;94968.28;;;2.40;100.00
29169;BME280;16219;42.864;23.360;2023-01-27T09:30:42;94958.31;;;2.47;100.00
29169;BME280;16219;42.864;23.360;2023-01-27T09:33:11;94958.31;;;2.47;100.00
29169;BME280;16219;42.864;23.360;2023-01-27T09:35:43;94954.34;;;2.50;100.00
29169;BME280;16219;42.864;23.360;2023-01-27T09:38:14;94938.56;;;2.41;100.00
29169;BME280;16219;42.864;23.360;2023-01-27T09:40:54;94941.94;;;2.42;100.00
29169;BME280;16219;42.864;23.360;2023-01-27T09:43:50;94949.97;;;2.45;100.00
29169;BME280;16219;42.864;23.360;2023-01-27T09:46:35;94943.47;;;2.48;100.00
29169;BME280;16219;42.864;23.360;2023-01-27T09:55:08;94924.31;;;2.58;100.00
29169;BME280;16219;42.864;23.360;2023-01-27T09:57:47;94929.47;;;2.63;100.00
29169;BME280;16219;42.864;23.360;2023-01-27T10:00:31;94926.66;;;2.59;100.00
29169;BME280;16219;42.864;23.360;2023-01-27T10:03:18;94925.19;;;2.72;100.00
29169;BME280;16219;42.864;23.360;2023-01-27T10:06:10;94910.59;;;2.71;100.00
29169;BME280;16219;42.864;23.360;2023-01-27T10:09:01;94925.34;;;2.81;100.00
29169;BME280;16219;42.864;23.360;2023-01-27T10:11:41;94912.56;;;2.79;100.00
29169;BME280;16219;42.864;23.360;2023-01-27T10:14:19;94913.78;;;2.87;100.00
29169;BME280;16219;42.864;23.360;2023-01-27T10:17:06;94922.91;;;2.84;100.00
29169;BME280;16219;42.864;23.360;2023-01-27T10:19:55;94918.34;;;2.76;100.00
29169;BME280;16219;42.864;23.360;2023-01-27T10:22:33;94903.56;;;2.53;100.00
29169;BME280;16219;42.864;23.360;2023-01-27T10:25:14;94913.13;;;2.57;100.00
29169;BME280;16219;42.864;23.360;2023-01-27T10:27:47;94918.91;;;2.54;100.00
29169;BME280;16219;42.864;23.360;2023-01-27T10:30:19;94911.00;;;2.40;100.00
29169;BME280;16219;42.864;23.360;2023-01-27T10:32:52;94902.34;;;2.45;100.00
29169;BME280;16219;42.864;23.360;2023-01-27T10:35:29;94909.31;;;2.49;100.00
29169;BME280;16219;42.864;23.360;2023-01-27T10:38:05;94909.53;;;2.53;100.00
29169;BME280;16219;42.864;23.360;2023-01-27T10:40:39;94903.00;;;2.56;100.00
29169;BME280;16219;42.864;23.360;2023-01-27T10:43:15;94896.97;;;2.60;100.00
29169;BME280;16219;42.864;23.360;2023-01-27T10:45:51;94905.53;;;2.61;100.00
29169;BME280;16219;42.864;23.360;2023-01-27T10:48:34;94890.47;;;2.58;100.00
29169;BME280;16219;42.864;23.360;2023-01-27T10:51:06;94896.13;;;2.65;100.00
29169;BME280;16219;42.864;23.360;2023-01-27T10:53:43;94894.22;;;2.70;100.00
29169;BME280;16219;42.864;23.360;2023-01-27T10:56:18;94894.69;;;2.54;100.00
29169;BME280;16219;42.864;23.360;2023-01-27T10:58:54;94903.56;;;2.53;100.00
29169;BME280;16219;42.864;23.360;2023-01-27T11:01:27;94898.22;;;2.63;100.00
29169;BME280;16219;42.864;23.360;2023-01-27T11:04:00;94895.56;;;2.68;100.00
29169;BME280;16219;42.864;23.360;2023-01-27T11:06:33;94895.13;;;2.61;100.00
29169;BME280;16219;42.864;23.360;2023-01-27T11:09:09;94845.56;;;2.28;100.00
29169;BME280;16219;42.864;23.360;2023-01-27T11:11:38;94884.28;;;2.54;100.00
29169;BME280;16219;42.864;23.360;2023-01-27T11:14:30;94883.56;;;2.67;100.00
29169;BME280;16219;42.864;23.360;2023-01-27T11:17:02;94882.47;;;2.73;100.00
29169;BME280;16219;42.864;23.360;2023-01-27T11:19:42;94860.91;;;2.67;100.00
29169;BME280;16219;42.864;23.360;2023-01-27T11:22:18;94880.97;;;2.86;100.00
29169;BME280;16219;42.864;23.360;2023-01-27T11:24:51;94883.78;;;2.89;100.00
29169;BME280;16219;42.864;23.360;2023-01-27T11:27:50;94881.81;;;2.81;100.00
29169;BME280;16219;42.864;23.360;2023-01-27T11:30:25;94881.06;;;2.81;100.00
29169;BME280;16219;42.864;23.360;2023-01-27T11:32:59;94887.09;;;2.76;100.00
29169;BME280;16219;42.864;23.360;2023-01-27T11:35:28;94884.28;;;2.72;100.00
29169;BME280;16219;42.864;23.360;2023-01-27T11:37:55;94878.25;;;2.77;100.00
29169;BME280;16219;42.864;23.360;2023-01-27T11:40:27;94878.31;;;2.72;100.00
29169;BME280;16219;42.864;23.360;2023-01-27T11:42:55;94878.25;;;2.77;100.00
29169;BME280;16219;42.864;23.360;2023-01-27T11:45:25;94878.78;;;2.74;100.00
29169;BME280;16219;42.864;23.360;2023-01-27T11:47:55;94876.06;;;2.65;100.00
29169;BME280;16219;42.864;23.360;2023-01-27T11:50:28;94870.16;;;2.60;100.00
29169;BME280;16219;42.864;23.360;2023-01-27T11:52:59;94870.34;;;2.63;100.00
29169;BME280;16219;42.864;23.360;2023-01-27T11:55:34;94869.00;;;2.66;100.00
29169;BME280;16219;42.864;23.360;2023-01-27T11:58:11;94863.19;;;2.55;100.00
29169;BME280;16219;42.864;23.360;2023-01-27T12:00:42;94865.13;;;2.63;100.00
29169;BME280;16219;42.864;23.360;2023-01-27T12:03:16;94874.66;;;2.73;100.00
29169;BME280;16219;42.864;23.360;2023-01-27T12:05:49;94862.63;;;2.77;100.00
29169;BME280;16219;42.864;23.360;2023-01-27T12:08:35;94869.56;;;2.82;100.00
29169;BME280;16219;42.864;23.360;2023-01-27T12:11:17;94861.84;;;2.77;100.00
29169;BME280;16219;42.864;23.360;2023-01-27T12:13:56;94861.47;;;2.83;100.00
29169;BME280;16219;42.864;23.360;2023-01-27T12:16:26;94862.16;;;2.89;100.00
29169;BME280;16219;42.864;23.360;2023-01-27T12:19:01;94861.56;;;2.78;100.00
29169;BME280;16219;42.864;23.360;2023-01-27T12:21:35;94865.28;;;2.72;100.00
29169;BME280;16219;42.864;23.360;2023-01-27T12:24:05;94858.53;;;2.71;100.00
29169;BME280;16219;42.864;23.360;2023-01-27T12:26:43;94858.50;;;2.90;100.00
29169;BME280;16219;42.864;23.360;2023-01-27T12:29:16;94860.28;;;2.94;100.00
29169;BME280;16219;42.864;23.360;2023-01-27T12:31:46;94863.94;;;2.93;100.00
29169;BME280;16219;42.864;23.360;2023-01-27T12:34:28;94856.69;;;2.90;100.00
29169;BME280;16219;42.864;23.360;2023-01-27T12:36:57;94875.69;;;2.91;100.00
29169;BME280;16219;42.864;23.360;2023-01-27T12:39:32;94871.47;;;2.95;100.00
29169;BME280;16219;42.864;23.360;2023-01-27T12:42:04;94886.16;;;3.05;100.00
29169;BME280;16219;42.864;23.360;2023-01-27T12:44:40;94876.03;;;3.03;100.00
29169;BME280;16219;42.864;23.360;2023-01-27T12:47:20;94890.16;;;3.16;100.00
29169;BME280;16219;42.864;23.360;2023-01-27T12:49:50;94880.84;;;3.10;100.00
29169;BME280;16219;42.864;23.360;2023-01-27T12:52:18;94882.03;;;3.17;100.00
29169;BME280;16219;42.864;23.360;2023-01-27T12:54:46;94869.78;;;3.18;100.00
29169;BME280;16219;42.864;23.360;2023-01-27T12:57:19;94873.56;;;3.25;100.00
29169;BME280;16219;42.864;23.360;2023-01-27T12:59:50;94869.72;;;3.23;100.00
29169;BME280;16219;42.864;23.360;2023-01-27T13:02:21;94870.19;;;3.25;100.00
29169;BME280;16219;42.864;23.360;2023-01-27T13:04:51;94865.47;;;3.27;100.00
29169;BME280;16219;42.864;23.360;2023-01-27T13:07:22;94866.16;;;3.19;100.00
29169;BME280;16219;42.864;23.360;2023-01-27T13:09:53;94859.09;;;3.19;100.00
29169;BME280;16219;42.864;23.360;2023-01-27T13:12:23;94859.44;;;3.13;100.00
29169;BME280;16219;42.864;23.360;2023-01-27T13:14:55;94852.19;;;3.10;100.00